<?xml version="1.0" encoding="UTF-8" standalone="no" ?>
<gpx xmlns="http://www.topografix.com/GPX/1/1" xmlns:xsi="http://www.w3.org/2001/XMLSchema-instance" xsi:schemaLocation="http://www.topografix.com/GPX/1/1 http://www.topografix.com/GPX/1/1/gpx.xsd" version="1.1" creator="VisuGPX - https://www.visugpx.com">
  <metadata>
    <name>Rouen - Paris</name>
  </metadata>
  <trk>
    <name><![CDATA[Raid Oissel à Paris - Conflans-Sainte-Honorine - Paris par le GR 2 (Etape3/3) - 5592 - UtagawaVTT.com]]></name>
    <trkseg>
      <trkpt lat="49.00558" lon="2.0846">
        <ele>54.008755</ele>
        <time>2011-05-23T07:05:53Z</time>
      </trkpt>
      <trkpt lat="49.00566" lon="2.08573">
        <ele>54.855232</ele>
        <time>2011-05-23T07:09:54Z</time>
      </trkpt>
      <trkpt lat="49.00535" lon="2.08648">
        <ele>54.961746</ele>
        <time>2011-05-23T07:10:29Z</time>
      </trkpt>
      <trkpt lat="49.0045" lon="2.08711">
        <ele>54.884792</ele>
        <time>2011-05-23T07:10:53Z</time>
      </trkpt>
      <trkpt lat="49.00358" lon="2.0873">
        <ele>55.362469</ele>
        <time>2011-05-23T07:11:11Z</time>
      </trkpt>
      <trkpt lat="49.00272" lon="2.0875">
        <ele>56.198082</ele>
        <time>2011-05-23T07:11:28Z</time>
      </trkpt>
      <trkpt lat="49.00198" lon="2.08791">
        <ele>56.012386</ele>
        <time>2011-05-23T07:11:54Z</time>
      </trkpt>
      <trkpt lat="49.00213" lon="2.08928">
        <ele>54.367348</ele>
        <time>2011-05-23T07:12:21Z</time>
      </trkpt>
      <trkpt lat="49.00189" lon="2.09051">
        <ele>53.021549</ele>
        <time>2011-05-23T07:12:40Z</time>
      </trkpt>
      <trkpt lat="49.00208" lon="2.09104">
        <ele>52.432003</ele>
        <time>2011-05-23T07:13:03Z</time>
      </trkpt>
      <trkpt lat="49.00236" lon="2.0923">
        <ele>51.513493</ele>
        <time>2011-05-23T07:13:21Z</time>
      </trkpt>
      <trkpt lat="49.00253" lon="2.09366">
        <ele>51.238327</ele>
        <time>2011-05-23T07:13:38Z</time>
      </trkpt>
      <trkpt lat="49.0017" lon="2.0938">
        <ele>50</ele>
        <time>2011-05-23T07:14:02Z</time>
      </trkpt>
      <trkpt lat="49.00077" lon="2.09376">
        <ele>49</ele>
        <time>2011-05-23T07:14:25Z</time>
      </trkpt>
      <trkpt lat="48.99981" lon="2.09373">
        <ele>47.599003</ele>
        <time>2011-05-23T07:14:43Z</time>
      </trkpt>
      <trkpt lat="48.99893" lon="2.0937">
        <ele>46.214462</ele>
        <time>2011-05-23T07:20:36Z</time>
      </trkpt>
      <trkpt lat="48.998" lon="2.09368">
        <ele>44.142727</ele>
        <time>2011-05-23T07:21:00Z</time>
      </trkpt>
      <trkpt lat="48.99704" lon="2.09393">
        <ele>41.256065</ele>
        <time>2011-05-23T07:21:42Z</time>
      </trkpt>
      <trkpt lat="48.99607" lon="2.0944">
        <ele>39.079189</ele>
        <time>2011-05-23T07:21:58Z</time>
      </trkpt>
      <trkpt lat="48.99524" lon="2.09523">
        <ele>37.35305</ele>
        <time>2011-05-23T07:22:33Z</time>
      </trkpt>
      <trkpt lat="48.99437" lon="2.09592">
        <ele>27.545017</ele>
        <time>2011-05-23T07:22:48Z</time>
      </trkpt>
      <trkpt lat="48.99368" lon="2.09507">
        <ele>28.313517</ele>
        <time>2011-05-23T07:23:05Z</time>
      </trkpt>
      <trkpt lat="48.99277" lon="2.09421">
        <ele>27.956982</ele>
        <time>2011-05-23T07:23:23Z</time>
      </trkpt>
      <trkpt lat="48.99232" lon="2.09305">
        <ele>29.3986</ele>
        <time>2011-05-23T07:23:44Z</time>
      </trkpt>
      <trkpt lat="48.99189" lon="2.0918">
        <ele>25.516733</ele>
        <time>2011-05-23T07:23:59Z</time>
      </trkpt>
      <trkpt lat="48.99137" lon="2.09149">
        <ele>21.399883</ele>
        <time>2011-05-23T07:24:23Z</time>
      </trkpt>
      <trkpt lat="48.99134" lon="2.0929">
        <ele>21.792433</ele>
        <time>2011-05-23T07:24:47Z</time>
      </trkpt>
      <trkpt lat="48.99147" lon="2.09429">
        <ele>22.25663</ele>
        <time>2011-05-23T07:25:10Z</time>
      </trkpt>
      <trkpt lat="48.99159" lon="2.09568">
        <ele>22.095839</ele>
        <time>2011-05-23T07:25:35Z</time>
      </trkpt>
      <trkpt lat="48.99163" lon="2.09709">
        <ele>20.895489</ele>
        <time>2011-05-23T07:26:00Z</time>
      </trkpt>
      <trkpt lat="48.99167" lon="2.09855">
        <ele>21.928934</ele>
        <time>2011-05-23T07:27:02Z</time>
      </trkpt>
      <trkpt lat="48.99163" lon="2.10004">
        <ele>20.902246</ele>
        <time>2011-05-23T07:27:25Z</time>
      </trkpt>
      <trkpt lat="48.99167" lon="2.10147">
        <ele>21.077185</ele>
        <time>2011-05-23T07:27:46Z</time>
      </trkpt>
      <trkpt lat="48.9917" lon="2.10292">
        <ele>19.596035</ele>
        <time>2011-05-23T07:28:07Z</time>
      </trkpt>
      <trkpt lat="48.99182" lon="2.10442">
        <ele>21.135996</ele>
        <time>2011-05-23T07:28:28Z</time>
      </trkpt>
      <trkpt lat="48.99189" lon="2.10584">
        <ele>22.481251</ele>
        <time>2011-05-23T07:28:48Z</time>
      </trkpt>
      <trkpt lat="48.99181" lon="2.1073">
        <ele>21.444939</ele>
        <time>2011-05-23T07:29:07Z</time>
      </trkpt>
      <trkpt lat="48.99169" lon="2.10873">
        <ele>21.090414</ele>
        <time>2011-05-23T07:29:26Z</time>
      </trkpt>
      <trkpt lat="48.99156" lon="2.11012">
        <ele>20.420225</ele>
        <time>2011-05-23T07:29:50Z</time>
      </trkpt>
      <trkpt lat="48.99141" lon="2.11158">
        <ele>20.167702</ele>
        <time>2011-05-23T07:30:09Z</time>
      </trkpt>
      <trkpt lat="48.99167" lon="2.11301">
        <ele>21.6705</ele>
        <time>2011-05-23T07:30:30Z</time>
      </trkpt>
      <trkpt lat="48.99188" lon="2.11452">
        <ele>24.641216</ele>
        <time>2011-05-23T07:30:53Z</time>
      </trkpt>
      <trkpt lat="48.992" lon="2.11594">
        <ele>25.143232</ele>
        <time>2011-05-23T07:31:10Z</time>
      </trkpt>
      <trkpt lat="48.99212" lon="2.11737">
        <ele>22.954533</ele>
        <time>2011-05-23T07:31:27Z</time>
      </trkpt>
      <trkpt lat="48.99227" lon="2.11879">
        <ele>24.426041</ele>
        <time>2011-05-23T07:31:44Z</time>
      </trkpt>
      <trkpt lat="48.9924" lon="2.12026">
        <ele>25.262735</ele>
        <time>2011-05-23T07:32:01Z</time>
      </trkpt>
      <trkpt lat="48.99242" lon="2.12164">
        <ele>26.677328</ele>
        <time>2011-05-23T07:32:17Z</time>
      </trkpt>
      <trkpt lat="48.99239" lon="2.12304">
        <ele>26.296547</ele>
        <time>2011-05-23T07:32:34Z</time>
      </trkpt>
      <trkpt lat="48.99225" lon="2.12443">
        <ele>25.117924</ele>
        <time>2011-05-23T07:32:51Z</time>
      </trkpt>
      <trkpt lat="48.99195" lon="2.12581">
        <ele>23.54491</ele>
        <time>2011-05-23T07:33:08Z</time>
      </trkpt>
      <trkpt lat="48.99141" lon="2.12696">
        <ele>22.405138</ele>
        <time>2011-05-23T07:33:26Z</time>
      </trkpt>
      <trkpt lat="48.99087" lon="2.1282">
        <ele>22.1444</ele>
        <time>2011-05-23T07:33:46Z</time>
      </trkpt>
      <trkpt lat="48.99065" lon="2.1296">
        <ele>22</ele>
        <time>2011-05-23T07:34:04Z</time>
      </trkpt>
      <trkpt lat="48.99062" lon="2.13112">
        <ele>22.562679</ele>
        <time>2011-05-23T07:34:39Z</time>
      </trkpt>
      <trkpt lat="48.9913" lon="2.13156">
        <ele>23.311562</ele>
        <time>2011-05-23T07:35:04Z</time>
      </trkpt>
      <trkpt lat="48.99188" lon="2.13221">
        <ele>33.059864</ele>
        <time>2011-05-23T07:35:36Z</time>
      </trkpt>
      <trkpt lat="48.9917" lon="2.13364">
        <ele>29.742102</ele>
        <time>2011-05-23T07:35:55Z</time>
      </trkpt>
      <trkpt lat="48.99172" lon="2.13507">
        <ele>31.997286</ele>
        <time>2011-05-23T07:36:15Z</time>
      </trkpt>
      <trkpt lat="48.99176" lon="2.13648">
        <ele>32.113659</ele>
        <time>2011-05-23T07:36:33Z</time>
      </trkpt>
      <trkpt lat="48.99186" lon="2.13795">
        <ele>31.205376</ele>
        <time>2011-05-23T07:36:53Z</time>
      </trkpt>
      <trkpt lat="48.99181" lon="2.13936">
        <ele>31.053835</ele>
        <time>2011-05-23T07:37:12Z</time>
      </trkpt>
      <trkpt lat="48.99171" lon="2.14079">
        <ele>31.283445</ele>
        <time>2011-05-23T07:37:30Z</time>
      </trkpt>
      <trkpt lat="48.99154" lon="2.14221">
        <ele>32.612862</ele>
        <time>2011-05-23T07:37:48Z</time>
      </trkpt>
      <trkpt lat="48.99142" lon="2.14263">
        <ele>30.028858</ele>
        <time>2011-05-23T07:38:50Z</time>
      </trkpt>
      <trkpt lat="48.99082" lon="2.14326">
        <ele>23</ele>
        <time>2011-05-23T07:39:18Z</time>
      </trkpt>
      <trkpt lat="48.99061" lon="2.14467">
        <ele>23.498669</ele>
        <time>2011-05-23T07:39:36Z</time>
      </trkpt>
      <trkpt lat="48.99026" lon="2.14612">
        <ele>23</ele>
        <time>2011-05-23T07:39:56Z</time>
      </trkpt>
      <trkpt lat="48.98989" lon="2.14745">
        <ele>23</ele>
        <time>2011-05-23T07:40:14Z</time>
      </trkpt>
      <trkpt lat="48.98944" lon="2.14877">
        <ele>22.885973</ele>
        <time>2011-05-23T07:40:32Z</time>
      </trkpt>
      <trkpt lat="48.98899" lon="2.14998">
        <ele>22.859873</ele>
        <time>2011-05-23T07:40:49Z</time>
      </trkpt>
      <trkpt lat="48.98852" lon="2.15129">
        <ele>22.818638</ele>
        <time>2011-05-23T07:41:07Z</time>
      </trkpt>
      <trkpt lat="48.98806" lon="2.15264">
        <ele>22.550188</ele>
        <time>2011-05-23T07:41:25Z</time>
      </trkpt>
      <trkpt lat="48.98765" lon="2.15393">
        <ele>22.520388</ele>
        <time>2011-05-23T07:41:44Z</time>
      </trkpt>
      <trkpt lat="48.98734" lon="2.15525">
        <ele>22.684256</ele>
        <time>2011-05-23T07:42:06Z</time>
      </trkpt>
      <trkpt lat="48.98709" lon="2.1566">
        <ele>23.244448</ele>
        <time>2011-05-23T07:42:25Z</time>
      </trkpt>
      <trkpt lat="48.98676" lon="2.15784">
        <ele>22.886034</ele>
        <time>2011-05-23T07:42:54Z</time>
      </trkpt>
      <trkpt lat="48.98674" lon="2.15927">
        <ele>26.775019</ele>
        <time>2011-05-23T07:43:22Z</time>
      </trkpt>
      <trkpt lat="48.9865" lon="2.16067">
        <ele>28.595009</ele>
        <time>2011-05-23T07:43:40Z</time>
      </trkpt>
      <trkpt lat="48.98622" lon="2.16196">
        <ele>27.669268</ele>
        <time>2011-05-23T07:43:56Z</time>
      </trkpt>
      <trkpt lat="48.9859" lon="2.16327">
        <ele>25.873732</ele>
        <time>2011-05-23T07:44:12Z</time>
      </trkpt>
      <trkpt lat="48.98542" lon="2.16452">
        <ele>24.188335</ele>
        <time>2011-05-23T07:44:32Z</time>
      </trkpt>
      <trkpt lat="48.98488" lon="2.16576">
        <ele>23.609352</ele>
        <time>2011-05-23T07:44:48Z</time>
      </trkpt>
      <trkpt lat="48.98431" lon="2.16691">
        <ele>23.675022</ele>
        <time>2011-05-23T07:45:05Z</time>
      </trkpt>
      <trkpt lat="48.98371" lon="2.16799">
        <ele>23.222176</ele>
        <time>2011-05-23T07:45:21Z</time>
      </trkpt>
      <trkpt lat="48.9831" lon="2.169">
        <ele>23</ele>
        <time>2011-05-23T07:45:37Z</time>
      </trkpt>
      <trkpt lat="48.98244" lon="2.17012">
        <ele>23.629131</ele>
        <time>2011-05-23T07:45:55Z</time>
      </trkpt>
      <trkpt lat="48.9818" lon="2.17113">
        <ele>23.589224</ele>
        <time>2011-05-23T07:46:13Z</time>
      </trkpt>
      <trkpt lat="48.98096" lon="2.17209">
        <ele>23.298952</ele>
        <time>2011-05-23T07:46:30Z</time>
      </trkpt>
      <trkpt lat="48.98025" lon="2.17306">
        <ele>24.109972</ele>
        <time>2011-05-23T07:46:49Z</time>
      </trkpt>
      <trkpt lat="48.97942" lon="2.17407">
        <ele>24.814642</ele>
        <time>2011-05-23T07:47:07Z</time>
      </trkpt>
      <trkpt lat="48.97864" lon="2.17486">
        <ele>26.693712</ele>
        <time>2011-05-23T07:47:28Z</time>
      </trkpt>
      <trkpt lat="48.9779" lon="2.17563">
        <ele>27.307074</ele>
        <time>2011-05-23T07:47:54Z</time>
      </trkpt>
      <trkpt lat="48.97707" lon="2.17629">
        <ele>27.168446</ele>
        <time>2011-05-23T07:48:11Z</time>
      </trkpt>
      <trkpt lat="48.97619" lon="2.1767">
        <ele>26.314236</ele>
        <time>2011-05-23T07:48:30Z</time>
      </trkpt>
      <trkpt lat="48.97531" lon="2.17722">
        <ele>26.031574</ele>
        <time>2011-05-23T07:48:52Z</time>
      </trkpt>
      <trkpt lat="48.97439" lon="2.17772">
        <ele>25.514345</ele>
        <time>2011-05-23T07:49:11Z</time>
      </trkpt>
      <trkpt lat="48.97355" lon="2.17829">
        <ele>26.344271</ele>
        <time>2011-05-23T07:49:31Z</time>
      </trkpt>
      <trkpt lat="48.97259" lon="2.17895">
        <ele>26.421265</ele>
        <time>2011-05-23T07:50:13Z</time>
      </trkpt>
      <trkpt lat="48.97173" lon="2.17945">
        <ele>26.0357</ele>
        <time>2011-05-23T07:50:34Z</time>
      </trkpt>
      <trkpt lat="48.97079" lon="2.18014">
        <ele>25.966593</ele>
        <time>2011-05-23T07:50:56Z</time>
      </trkpt>
      <trkpt lat="48.96991" lon="2.1807">
        <ele>24.90942</ele>
        <time>2011-05-23T07:51:15Z</time>
      </trkpt>
      <trkpt lat="48.96894" lon="2.1811">
        <ele>25.442715</ele>
        <time>2011-05-23T07:53:15Z</time>
      </trkpt>
      <trkpt lat="48.96801" lon="2.18136">
        <ele>25.109434</ele>
        <time>2011-05-23T07:53:37Z</time>
      </trkpt>
      <trkpt lat="48.96709" lon="2.18131">
        <ele>24.79583</ele>
        <time>2011-05-23T07:53:57Z</time>
      </trkpt>
      <trkpt lat="48.96613" lon="2.18092">
        <ele>24.917257</ele>
        <time>2011-05-23T07:54:28Z</time>
      </trkpt>
      <trkpt lat="48.96575" lon="2.18109">
        <ele>24.570099</ele>
        <time>2011-05-23T07:59:03Z</time>
      </trkpt>
      <trkpt lat="48.96549" lon="2.18196">
        <ele>30.357792</ele>
        <time>2011-05-23T07:59:35Z</time>
      </trkpt>
      <trkpt lat="48.96456" lon="2.18195">
        <ele>29.226051</ele>
        <time>2011-05-23T07:59:53Z</time>
      </trkpt>
      <trkpt lat="48.96363" lon="2.1819">
        <ele>28.938341</ele>
        <time>2011-05-23T08:00:08Z</time>
      </trkpt>
      <trkpt lat="48.9627" lon="2.18178">
        <ele>29.551432</ele>
        <time>2011-05-23T08:00:23Z</time>
      </trkpt>
      <trkpt lat="48.96174" lon="2.18166">
        <ele>29.130529</ele>
        <time>2011-05-23T08:00:39Z</time>
      </trkpt>
      <trkpt lat="48.96081" lon="2.1814">
        <ele>29.435081</ele>
        <time>2011-05-23T08:00:54Z</time>
      </trkpt>
      <trkpt lat="48.95986" lon="2.18092">
        <ele>27.042315</ele>
        <time>2011-05-23T08:01:12Z</time>
      </trkpt>
      <trkpt lat="48.95898" lon="2.18058">
        <ele>27.53232</ele>
        <time>2011-05-23T08:01:30Z</time>
      </trkpt>
      <trkpt lat="48.9581" lon="2.18011">
        <ele>29.689329</ele>
        <time>2011-05-23T08:01:49Z</time>
      </trkpt>
      <trkpt lat="48.95718" lon="2.17965">
        <ele>30.103224</ele>
        <time>2011-05-23T08:02:08Z</time>
      </trkpt>
      <trkpt lat="48.95632" lon="2.17921">
        <ele>30.230553</ele>
        <time>2011-05-23T08:02:27Z</time>
      </trkpt>
      <trkpt lat="48.9555" lon="2.17869">
        <ele>31.164898</ele>
        <time>2011-05-23T08:02:45Z</time>
      </trkpt>
      <trkpt lat="48.95466" lon="2.17804">
        <ele>36.972118</ele>
        <time>2011-05-23T08:03:03Z</time>
      </trkpt>
      <trkpt lat="48.9538" lon="2.17729">
        <ele>39.159832</ele>
        <time>2011-05-23T08:03:21Z</time>
      </trkpt>
      <trkpt lat="48.95299" lon="2.17649">
        <ele>37.395523</ele>
        <time>2011-05-23T08:03:40Z</time>
      </trkpt>
      <trkpt lat="48.95217" lon="2.1758">
        <ele>33.949917</ele>
        <time>2011-05-23T08:04:03Z</time>
      </trkpt>
      <trkpt lat="48.95137" lon="2.1751">
        <ele>33.406059</ele>
        <time>2011-05-23T08:04:23Z</time>
      </trkpt>
      <trkpt lat="48.95058" lon="2.17437">
        <ele>32.772934</ele>
        <time>2011-05-23T08:04:41Z</time>
      </trkpt>
      <trkpt lat="48.9498" lon="2.1737">
        <ele>33.012062</ele>
        <time>2011-05-23T08:04:58Z</time>
      </trkpt>
      <trkpt lat="48.94906" lon="2.17291">
        <ele>33.952087</ele>
        <time>2011-05-23T08:05:15Z</time>
      </trkpt>
      <trkpt lat="48.9483" lon="2.17206">
        <ele>31.378345</ele>
        <time>2011-05-23T08:05:31Z</time>
      </trkpt>
      <trkpt lat="48.94772" lon="2.17102">
        <ele>29.947155</ele>
        <time>2011-05-23T08:05:52Z</time>
      </trkpt>
      <trkpt lat="48.94816" lon="2.16987">
        <ele>26.04258</ele>
        <time>2011-05-23T08:06:14Z</time>
      </trkpt>
      <trkpt lat="48.94863" lon="2.16869">
        <ele>25.000223</ele>
        <time>2011-05-23T08:06:35Z</time>
      </trkpt>
      <trkpt lat="48.9489" lon="2.16755">
        <ele>25</ele>
        <time>2011-05-23T08:07:03Z</time>
      </trkpt>
      <trkpt lat="48.94837" lon="2.1664">
        <ele>25</ele>
        <time>2011-05-23T08:07:22Z</time>
      </trkpt>
      <trkpt lat="48.94781" lon="2.16522">
        <ele>25</ele>
        <time>2011-05-23T08:07:47Z</time>
      </trkpt>
      <trkpt lat="48.94722" lon="2.16401">
        <ele>25</ele>
        <time>2011-05-23T08:08:08Z</time>
      </trkpt>
      <trkpt lat="48.94665" lon="2.16285">
        <ele>24</ele>
        <time>2011-05-23T08:08:26Z</time>
      </trkpt>
      <trkpt lat="48.94599" lon="2.16168">
        <ele>24.278847</ele>
        <time>2011-05-23T08:10:11Z</time>
      </trkpt>
      <trkpt lat="48.94537" lon="2.16065">
        <ele>25</ele>
        <time>2011-05-23T08:10:30Z</time>
      </trkpt>
      <trkpt lat="48.94468" lon="2.15965">
        <ele>24.229921</ele>
        <time>2011-05-23T08:11:12Z</time>
      </trkpt>
      <trkpt lat="48.94398" lon="2.15871">
        <ele>24</ele>
        <time>2011-05-23T08:11:34Z</time>
      </trkpt>
      <trkpt lat="48.9433" lon="2.15768">
        <ele>24</ele>
        <time>2011-05-23T08:12:05Z</time>
      </trkpt>
      <trkpt lat="48.94262" lon="2.15659">
        <ele>24</ele>
        <time>2011-05-23T08:12:41Z</time>
      </trkpt>
      <trkpt lat="48.94191" lon="2.15572">
        <ele>24</ele>
        <time>2011-05-23T08:13:00Z</time>
      </trkpt>
      <trkpt lat="48.94121" lon="2.15473">
        <ele>24.243826</ele>
        <time>2011-05-23T08:13:18Z</time>
      </trkpt>
      <trkpt lat="48.94051" lon="2.15366">
        <ele>24</ele>
        <time>2011-05-23T08:13:52Z</time>
      </trkpt>
      <trkpt lat="48.93988" lon="2.15261">
        <ele>24</ele>
        <time>2011-05-23T08:14:20Z</time>
      </trkpt>
      <trkpt lat="48.93934" lon="2.15143">
        <ele>24</ele>
        <time>2011-05-23T08:14:42Z</time>
      </trkpt>
      <trkpt lat="48.93885" lon="2.15018">
        <ele>24</ele>
        <time>2011-05-23T08:14:59Z</time>
      </trkpt>
      <trkpt lat="48.93831" lon="2.14897">
        <ele>24</ele>
        <time>2011-05-23T08:15:31Z</time>
      </trkpt>
      <trkpt lat="48.93781" lon="2.14776">
        <ele>24</ele>
        <time>2011-05-23T08:15:48Z</time>
      </trkpt>
      <trkpt lat="48.9372" lon="2.14668">
        <ele>24.192949</ele>
        <time>2011-05-23T08:16:05Z</time>
      </trkpt>
      <trkpt lat="48.93657" lon="2.14575">
        <ele>24.153978</ele>
        <time>2011-05-23T08:16:22Z</time>
      </trkpt>
      <trkpt lat="48.93589" lon="2.14468">
        <ele>24</ele>
        <time>2011-05-23T08:16:40Z</time>
      </trkpt>
      <trkpt lat="48.9352" lon="2.14376">
        <ele>24</ele>
        <time>2011-05-23T08:16:56Z</time>
      </trkpt>
      <trkpt lat="48.93444" lon="2.14288">
        <ele>24.943993</ele>
        <time>2011-05-23T08:17:15Z</time>
      </trkpt>
      <trkpt lat="48.9338" lon="2.14185">
        <ele>25</ele>
        <time>2011-05-23T08:17:33Z</time>
      </trkpt>
      <trkpt lat="48.93311" lon="2.14078">
        <ele>24.481754</ele>
        <time>2011-05-23T08:17:51Z</time>
      </trkpt>
      <trkpt lat="48.93248" lon="2.13972">
        <ele>24.86828</ele>
        <time>2011-05-23T08:18:11Z</time>
      </trkpt>
      <trkpt lat="48.93181" lon="2.13864">
        <ele>24.869665</ele>
        <time>2011-05-23T08:18:30Z</time>
      </trkpt>
      <trkpt lat="48.93117" lon="2.13754">
        <ele>24</ele>
        <time>2011-05-23T08:18:48Z</time>
      </trkpt>
      <trkpt lat="48.93039" lon="2.13636">
        <ele>24</ele>
        <time>2011-05-23T08:19:19Z</time>
      </trkpt>
      <trkpt lat="48.92965" lon="2.13508">
        <ele>24</ele>
        <time>2011-05-23T08:19:48Z</time>
      </trkpt>
      <trkpt lat="48.92885" lon="2.1339">
        <ele>24</ele>
        <time>2011-05-23T08:20:18Z</time>
      </trkpt>
      <trkpt lat="48.92808" lon="2.13278">
        <ele>24</ele>
        <time>2011-05-23T08:20:45Z</time>
      </trkpt>
      <trkpt lat="48.92737" lon="2.13166">
        <ele>24</ele>
        <time>2011-05-23T08:21:08Z</time>
      </trkpt>
      <trkpt lat="48.92658" lon="2.13039">
        <ele>24</ele>
        <time>2011-05-23T08:21:30Z</time>
      </trkpt>
      <trkpt lat="48.92574" lon="2.12912">
        <ele>24</ele>
        <time>2011-05-23T08:21:51Z</time>
      </trkpt>
      <trkpt lat="48.92503" lon="2.12814">
        <ele>24.178505</ele>
        <time>2011-05-23T08:22:09Z</time>
      </trkpt>
      <trkpt lat="48.92432" lon="2.12723">
        <ele>24.090296</ele>
        <time>2011-05-23T08:22:26Z</time>
      </trkpt>
      <trkpt lat="48.92356" lon="2.12645">
        <ele>23.980806</ele>
        <time>2011-05-23T08:22:44Z</time>
      </trkpt>
      <trkpt lat="48.92272" lon="2.12553">
        <ele>23.808491</ele>
        <time>2011-05-23T08:23:03Z</time>
      </trkpt>
      <trkpt lat="48.92194" lon="2.12469">
        <ele>24.263494</ele>
        <time>2011-05-23T08:23:21Z</time>
      </trkpt>
      <trkpt lat="48.92117" lon="2.12395">
        <ele>24.983774</ele>
        <time>2011-05-23T08:23:38Z</time>
      </trkpt>
      <trkpt lat="48.92028" lon="2.12317">
        <ele>25.067612</ele>
        <time>2011-05-23T08:23:56Z</time>
      </trkpt>
      <trkpt lat="48.91942" lon="2.12243">
        <ele>24.033323</ele>
        <time>2011-05-23T08:24:18Z</time>
      </trkpt>
      <trkpt lat="48.91859" lon="2.12174">
        <ele>24.010246</ele>
        <time>2011-05-23T08:24:36Z</time>
      </trkpt>
      <trkpt lat="48.91775" lon="2.12113">
        <ele>24</ele>
        <time>2011-05-23T08:24:54Z</time>
      </trkpt>
      <trkpt lat="48.91693" lon="2.12054">
        <ele>24</ele>
        <time>2011-05-23T08:25:11Z</time>
      </trkpt>
      <trkpt lat="48.91611" lon="2.11996">
        <ele>24</ele>
        <time>2011-05-23T08:25:27Z</time>
      </trkpt>
      <trkpt lat="48.91529" lon="2.1193">
        <ele>25</ele>
        <time>2011-05-23T08:25:52Z</time>
      </trkpt>
      <trkpt lat="48.91439" lon="2.11876">
        <ele>24.019821</ele>
        <time>2011-05-23T08:26:15Z</time>
      </trkpt>
      <trkpt lat="48.91346" lon="2.11814">
        <ele>24</ele>
        <time>2011-05-23T08:26:36Z</time>
      </trkpt>
      <trkpt lat="48.91259" lon="2.11757">
        <ele>24</ele>
        <time>2011-05-23T08:26:54Z</time>
      </trkpt>
      <trkpt lat="48.9117" lon="2.11708">
        <ele>24.135853</ele>
        <time>2011-05-23T08:27:12Z</time>
      </trkpt>
      <trkpt lat="48.9108" lon="2.11651">
        <ele>24.986805</ele>
        <time>2011-05-23T08:27:34Z</time>
      </trkpt>
      <trkpt lat="48.90989" lon="2.11602">
        <ele>24</ele>
        <time>2011-05-23T08:27:54Z</time>
      </trkpt>
      <trkpt lat="48.90894" lon="2.11547">
        <ele>24</ele>
        <time>2011-05-23T08:28:15Z</time>
      </trkpt>
      <trkpt lat="48.90798" lon="2.11515">
        <ele>25</ele>
        <time>2011-05-23T08:28:36Z</time>
      </trkpt>
      <trkpt lat="48.90699" lon="2.11483">
        <ele>24.801403</ele>
        <time>2011-05-23T08:28:57Z</time>
      </trkpt>
      <trkpt lat="48.90608" lon="2.11451">
        <ele>24.837687</ele>
        <time>2011-05-23T08:29:15Z</time>
      </trkpt>
      <trkpt lat="48.9051" lon="2.114">
        <ele>24.575132</ele>
        <time>2011-05-23T08:29:35Z</time>
      </trkpt>
      <trkpt lat="48.90416" lon="2.11351">
        <ele>24</ele>
        <time>2011-05-23T08:30:01Z</time>
      </trkpt>
      <trkpt lat="48.90325" lon="2.11309">
        <ele>24</ele>
        <time>2011-05-23T08:30:20Z</time>
      </trkpt>
      <trkpt lat="48.90235" lon="2.11278">
        <ele>24</ele>
        <time>2011-05-23T08:30:49Z</time>
      </trkpt>
      <trkpt lat="48.90157" lon="2.112">
        <ele>24</ele>
        <time>2011-05-23T08:31:10Z</time>
      </trkpt>
      <trkpt lat="48.90088" lon="2.11111">
        <ele>24.022511</ele>
        <time>2011-05-23T08:31:28Z</time>
      </trkpt>
      <trkpt lat="48.90015" lon="2.11028">
        <ele>24.061457</ele>
        <time>2011-05-23T08:31:52Z</time>
      </trkpt>
      <trkpt lat="48.89937" lon="2.10995">
        <ele>24.250225</ele>
        <time>2011-05-23T08:36:18Z</time>
      </trkpt>
      <trkpt lat="48.89841" lon="2.10982">
        <ele>24.392586</ele>
        <time>2011-05-23T08:36:40Z</time>
      </trkpt>
      <trkpt lat="48.89737" lon="2.10985">
        <ele>24.441206</ele>
        <time>2011-05-23T08:37:22Z</time>
      </trkpt>
      <trkpt lat="48.8963" lon="2.10973">
        <ele>25.065454</ele>
        <time>2011-05-23T08:37:43Z</time>
      </trkpt>
      <trkpt lat="48.89541" lon="2.10943">
        <ele>24.807915</ele>
        <time>2011-05-23T08:38:07Z</time>
      </trkpt>
      <trkpt lat="48.8944" lon="2.10946">
        <ele>24.849705</ele>
        <time>2011-05-23T08:38:29Z</time>
      </trkpt>
      <trkpt lat="48.89383" lon="2.10897">
        <ele>24.778738</ele>
        <time>2011-05-23T08:38:53Z</time>
      </trkpt>
      <trkpt lat="48.89287" lon="2.10878">
        <ele>24.836449</ele>
        <time>2011-05-23T08:39:16Z</time>
      </trkpt>
      <trkpt lat="48.89192" lon="2.10881">
        <ele>24.874014</ele>
        <time>2011-05-23T08:39:37Z</time>
      </trkpt>
      <trkpt lat="48.89101" lon="2.10901">
        <ele>25.147608</ele>
        <time>2011-05-23T08:39:56Z</time>
      </trkpt>
      <trkpt lat="48.8901" lon="2.10959">
        <ele>24.012196</ele>
        <time>2011-05-23T08:40:14Z</time>
      </trkpt>
      <trkpt lat="48.88925" lon="2.11037">
        <ele>24.144537</ele>
        <time>2011-05-23T08:40:40Z</time>
      </trkpt>
      <trkpt lat="48.88842" lon="2.11107">
        <ele>25</ele>
        <time>2011-05-23T08:41:00Z</time>
      </trkpt>
      <trkpt lat="48.8876" lon="2.11172">
        <ele>25.124525</ele>
        <time>2011-05-23T08:41:17Z</time>
      </trkpt>
      <trkpt lat="48.8868" lon="2.11255">
        <ele>25.337217</ele>
        <time>2011-05-23T08:41:35Z</time>
      </trkpt>
      <trkpt lat="48.88597" lon="2.11331">
        <ele>25.193726</ele>
        <time>2011-05-23T08:41:52Z</time>
      </trkpt>
      <trkpt lat="48.88519" lon="2.11407">
        <ele>25.557938</ele>
        <time>2011-05-23T08:42:07Z</time>
      </trkpt>
      <trkpt lat="48.88439" lon="2.11483">
        <ele>25.149874</ele>
        <time>2011-05-23T08:42:23Z</time>
      </trkpt>
      <trkpt lat="48.88358" lon="2.11542">
        <ele>25.215643</ele>
        <time>2011-05-23T08:42:39Z</time>
      </trkpt>
      <trkpt lat="48.8827" lon="2.11597">
        <ele>25.151283</ele>
        <time>2011-05-23T08:42:55Z</time>
      </trkpt>
      <trkpt lat="48.88185" lon="2.11667">
        <ele>25.348505</ele>
        <time>2011-05-23T08:43:12Z</time>
      </trkpt>
      <trkpt lat="48.8811" lon="2.11759">
        <ele>25.608437</ele>
        <time>2011-05-23T08:43:28Z</time>
      </trkpt>
      <trkpt lat="48.88036" lon="2.11853">
        <ele>25.346579</ele>
        <time>2011-05-23T08:43:45Z</time>
      </trkpt>
      <trkpt lat="48.8795" lon="2.11928">
        <ele>25.583618</ele>
        <time>2011-05-23T08:44:02Z</time>
      </trkpt>
      <trkpt lat="48.87876" lon="2.12015">
        <ele>25.66082</ele>
        <time>2011-05-23T08:44:18Z</time>
      </trkpt>
      <trkpt lat="48.87803" lon="2.12103">
        <ele>25.029465</ele>
        <time>2011-05-23T08:44:34Z</time>
      </trkpt>
      <trkpt lat="48.87735" lon="2.12205">
        <ele>25.110134</ele>
        <time>2011-05-23T08:44:50Z</time>
      </trkpt>
      <trkpt lat="48.87662" lon="2.12292">
        <ele>25.441959</ele>
        <time>2011-05-23T08:45:07Z</time>
      </trkpt>
      <trkpt lat="48.87582" lon="2.12377">
        <ele>25</ele>
        <time>2011-05-23T08:45:24Z</time>
      </trkpt>
      <trkpt lat="48.87512" lon="2.12473">
        <ele>25</ele>
        <time>2011-05-23T08:45:39Z</time>
      </trkpt>
      <trkpt lat="48.87448" lon="2.12583">
        <ele>25.098866</ele>
        <time>2011-05-23T08:45:56Z</time>
      </trkpt>
      <trkpt lat="48.87385" lon="2.12685">
        <ele>25</ele>
        <time>2011-05-23T08:46:16Z</time>
      </trkpt>
      <trkpt lat="48.87318" lon="2.12785">
        <ele>25</ele>
        <time>2011-05-23T08:46:39Z</time>
      </trkpt>
      <trkpt lat="48.87252" lon="2.12887">
        <ele>25</ele>
        <time>2011-05-23T08:47:04Z</time>
      </trkpt>
      <trkpt lat="48.87195" lon="2.13003">
        <ele>25</ele>
        <time>2011-05-23T08:47:22Z</time>
      </trkpt>
      <trkpt lat="48.87146" lon="2.1313">
        <ele>25</ele>
        <time>2011-05-23T08:47:39Z</time>
      </trkpt>
      <trkpt lat="48.87115" lon="2.13277">
        <ele>25</ele>
        <time>2011-05-23T08:47:58Z</time>
      </trkpt>
      <trkpt lat="48.87097" lon="2.13413">
        <ele>25</ele>
        <time>2011-05-23T08:48:14Z</time>
      </trkpt>
      <trkpt lat="48.87082" lon="2.1356">
        <ele>25</ele>
        <time>2011-05-23T08:48:31Z</time>
      </trkpt>
      <trkpt lat="48.87081" lon="2.13704">
        <ele>25</ele>
        <time>2011-05-23T08:48:50Z</time>
      </trkpt>
      <trkpt lat="48.87147" lon="2.13804">
        <ele>25.785467</ele>
        <time>2011-05-23T08:54:04Z</time>
      </trkpt>
      <trkpt lat="48.87219" lon="2.13753">
        <ele>26</ele>
        <time>2011-05-23T08:54:37Z</time>
      </trkpt>
      <trkpt lat="48.87123" lon="2.1373">
        <ele>25</ele>
        <time>2011-05-23T08:54:59Z</time>
      </trkpt>
      <trkpt lat="48.87033" lon="2.13725">
        <ele>25</ele>
        <time>2011-05-23T08:55:21Z</time>
      </trkpt>
      <trkpt lat="48.8694" lon="2.13722">
        <ele>25</ele>
        <time>2011-05-23T08:55:42Z</time>
      </trkpt>
      <trkpt lat="48.8685" lon="2.13713">
        <ele>25</ele>
        <time>2011-05-23T08:56:03Z</time>
      </trkpt>
      <trkpt lat="48.86755" lon="2.13708">
        <ele>25.268147</ele>
        <time>2011-05-23T08:56:23Z</time>
      </trkpt>
      <trkpt lat="48.86662" lon="2.13711">
        <ele>28.568617</ele>
        <time>2011-05-23T08:56:40Z</time>
      </trkpt>
      <trkpt lat="48.8658" lon="2.13778">
        <ele>36.222813</ele>
        <time>2011-05-23T08:57:06Z</time>
      </trkpt>
      <trkpt lat="48.86557" lon="2.1388">
        <ele>33.085182</ele>
        <time>2011-05-23T08:58:08Z</time>
      </trkpt>
      <trkpt lat="48.8647" lon="2.13946">
        <ele>37.727093</ele>
        <time>2011-05-23T08:58:39Z</time>
      </trkpt>
      <trkpt lat="48.86382" lon="2.14005">
        <ele>45.545765</ele>
        <time>2011-05-23T08:59:46Z</time>
      </trkpt>
      <trkpt lat="48.86315" lon="2.14034">
        <ele>50.882416</ele>
        <time>2011-05-23T09:00:37Z</time>
      </trkpt>
      <trkpt lat="48.86391" lon="2.14098">
        <ele>61.508415</ele>
        <time>2011-05-23T09:01:23Z</time>
      </trkpt>
      <trkpt lat="48.86489" lon="2.14093">
        <ele>61.114555</ele>
        <time>2011-05-23T09:01:51Z</time>
      </trkpt>
      <trkpt lat="48.86579" lon="2.14119">
        <ele>60.724541</ele>
        <time>2011-05-23T09:02:18Z</time>
      </trkpt>
      <trkpt lat="48.86575" lon="2.14281">
        <ele>67.756439</ele>
        <time>2011-05-23T09:03:03Z</time>
      </trkpt>
      <trkpt lat="48.86588" lon="2.14464">
        <ele>63.711063</ele>
        <time>2011-05-23T09:03:36Z</time>
      </trkpt>
      <trkpt lat="48.86566" lon="2.14372">
        <ele>70.925713</ele>
        <time>2011-05-23T09:04:26Z</time>
      </trkpt>
      <trkpt lat="48.86544" lon="2.14388">
        <ele>79.192741</ele>
        <time>2011-05-23T09:05:24Z</time>
      </trkpt>
      <trkpt lat="48.86515" lon="2.14587">
        <ele>99.571228</ele>
        <time>2011-05-23T09:07:13Z</time>
      </trkpt>
      <trkpt lat="48.86504" lon="2.1473">
        <ele>106.764122</ele>
        <time>2011-05-23T09:10:02Z</time>
      </trkpt>
      <trkpt lat="48.8649" lon="2.14978">
        <ele>110.030678</ele>
        <time>2011-05-23T09:10:58Z</time>
      </trkpt>
      <trkpt lat="48.86538" lon="2.15019">
        <ele>94.41967</ele>
        <time>2011-05-23T09:13:37Z</time>
      </trkpt>
      <trkpt lat="48.86566" lon="2.15163">
        <ele>88.904274</ele>
        <time>2011-05-23T09:14:46Z</time>
      </trkpt>
      <trkpt lat="48.86592" lon="2.15064">
        <ele>73.938477</ele>
        <time>2011-05-23T09:18:24Z</time>
      </trkpt>
      <trkpt lat="48.86611" lon="2.15215">
        <ele>72.683548</ele>
        <time>2011-05-23T09:18:49Z</time>
      </trkpt>
      <trkpt lat="48.86627" lon="2.1535">
        <ele>67.21048</ele>
        <time>2011-05-23T09:19:08Z</time>
      </trkpt>
      <trkpt lat="48.86707" lon="2.15497">
        <ele>59.235947</ele>
        <time>2011-05-23T09:19:25Z</time>
      </trkpt>
      <trkpt lat="48.86785" lon="2.15616">
        <ele>49.394878</ele>
        <time>2011-05-23T09:20:38Z</time>
      </trkpt>
      <trkpt lat="48.86866" lon="2.15694">
        <ele>37.705097</ele>
        <time>2011-05-23T09:20:47Z</time>
      </trkpt>
      <trkpt lat="48.8691" lon="2.15788">
        <ele>33.676735</ele>
        <time>2011-05-23T09:21:06Z</time>
      </trkpt>
      <trkpt lat="48.86921" lon="2.15928">
        <ele>33.201767</ele>
        <time>2011-05-23T09:21:28Z</time>
      </trkpt>
      <trkpt lat="48.86912" lon="2.16074">
        <ele>33.869358</ele>
        <time>2011-05-23T09:21:49Z</time>
      </trkpt>
      <trkpt lat="48.86885" lon="2.16221">
        <ele>35.078239</ele>
        <time>2011-05-23T09:22:11Z</time>
      </trkpt>
      <trkpt lat="48.86812" lon="2.16132">
        <ele>44.731503</ele>
        <time>2011-05-23T09:23:29Z</time>
      </trkpt>
      <trkpt lat="48.86711" lon="2.1596">
        <ele>69.543976</ele>
        <time>2011-05-23T09:25:25Z</time>
      </trkpt>
      <trkpt lat="48.86605" lon="2.1592">
        <ele>81.921379</ele>
        <time>2011-05-23T09:27:01Z</time>
      </trkpt>
      <trkpt lat="48.86514" lon="2.16015">
        <ele>79.740265</ele>
        <time>2011-05-23T09:27:27Z</time>
      </trkpt>
      <trkpt lat="48.8644" lon="2.16032">
        <ele>88.86245</ele>
        <time>2011-05-23T09:28:16Z</time>
      </trkpt>
      <trkpt lat="48.86356" lon="2.16104">
        <ele>92.378189</ele>
        <time>2011-05-23T09:28:55Z</time>
      </trkpt>
      <trkpt lat="48.86287" lon="2.16141">
        <ele>88.031151</ele>
        <time>2011-05-23T09:29:23Z</time>
      </trkpt>
      <trkpt lat="48.86199" lon="2.1622">
        <ele>94.837395</ele>
        <time>2011-05-23T09:30:01Z</time>
      </trkpt>
      <trkpt lat="48.86104" lon="2.16272">
        <ele>96.308891</ele>
        <time>2011-05-23T09:30:30Z</time>
      </trkpt>
      <trkpt lat="48.86047" lon="2.1639">
        <ele>89.77269</ele>
        <time>2011-05-23T09:31:04Z</time>
      </trkpt>
      <trkpt lat="48.85966" lon="2.16373">
        <ele>93.387032</ele>
        <time>2011-05-23T09:31:58Z</time>
      </trkpt>
      <trkpt lat="48.85822" lon="2.16246">
        <ele>109.540878</ele>
        <time>2011-05-23T09:33:16Z</time>
      </trkpt>
      <trkpt lat="48.85702" lon="2.16168">
        <ele>118.098145</ele>
        <time>2011-05-23T09:34:18Z</time>
      </trkpt>
      <trkpt lat="48.85619" lon="2.16206">
        <ele>126.211861</ele>
        <time>2011-05-23T09:35:16Z</time>
      </trkpt>
      <trkpt lat="48.85567" lon="2.16367">
        <ele>115.52758</ele>
        <time>2011-05-23T09:35:47Z</time>
      </trkpt>
      <trkpt lat="48.85529" lon="2.16473">
        <ele>113.250618</ele>
        <time>2011-05-23T09:36:58Z</time>
      </trkpt>
      <trkpt lat="48.85453" lon="2.16444">
        <ele>118.00116</ele>
        <time>2011-05-23T09:38:56Z</time>
      </trkpt>
      <trkpt lat="48.85357" lon="2.16372">
        <ele>118.780403</ele>
        <time>2011-05-23T09:39:30Z</time>
      </trkpt>
      <trkpt lat="48.85265" lon="2.16353">
        <ele>123.420044</ele>
        <time>2011-05-23T09:40:16Z</time>
      </trkpt>
      <trkpt lat="48.85195" lon="2.16209">
        <ele>131.283447</ele>
        <time>2011-05-23T09:41:09Z</time>
      </trkpt>
      <trkpt lat="48.85126" lon="2.16019">
        <ele>143.431519</ele>
        <time>2011-05-23T09:41:57Z</time>
      </trkpt>
      <trkpt lat="48.8507" lon="2.15862">
        <ele>158.812653</ele>
        <time>2011-05-23T09:44:50Z</time>
      </trkpt>
      <trkpt lat="48.85107" lon="2.15713">
        <ele>158.926804</ele>
        <time>2011-05-23T09:45:22Z</time>
      </trkpt>
      <trkpt lat="48.85033" lon="2.15795">
        <ele>160.322662</ele>
        <time>2011-05-23T09:46:00Z</time>
      </trkpt>
      <trkpt lat="48.8494" lon="2.1591">
        <ele>162.190262</ele>
        <time>2011-05-23T09:46:27Z</time>
      </trkpt>
      <trkpt lat="48.84838" lon="2.15935">
        <ele>161.243225</ele>
        <time>2011-05-23T09:46:52Z</time>
      </trkpt>
      <trkpt lat="48.8476" lon="2.15958">
        <ele>162.095749</ele>
        <time>2011-05-23T09:47:26Z</time>
      </trkpt>
      <trkpt lat="48.84739" lon="2.15851">
        <ele>163</ele>
        <time>2011-05-23T09:49:20Z</time>
      </trkpt>
      <trkpt lat="48.84693" lon="2.15785">
        <ele>163.58522</ele>
        <time>2011-05-23T09:49:51Z</time>
      </trkpt>
      <trkpt lat="48.84696" lon="2.15633">
        <ele>164.140335</ele>
        <time>2011-05-23T09:50:12Z</time>
      </trkpt>
      <trkpt lat="48.84617" lon="2.15574">
        <ele>165.490906</ele>
        <time>2011-05-23T09:50:34Z</time>
      </trkpt>
      <trkpt lat="48.84536" lon="2.15505">
        <ele>166.405212</ele>
        <time>2011-05-23T09:50:57Z</time>
      </trkpt>
      <trkpt lat="48.8449" lon="2.15381">
        <ele>167.870712</ele>
        <time>2011-05-23T09:51:20Z</time>
      </trkpt>
      <trkpt lat="48.8445" lon="2.15254">
        <ele>168.683716</ele>
        <time>2011-05-23T09:51:42Z</time>
      </trkpt>
      <trkpt lat="48.84355" lon="2.15268">
        <ele>169.79808</ele>
        <time>2011-05-23T09:52:03Z</time>
      </trkpt>
      <trkpt lat="48.84257" lon="2.15272">
        <ele>170.940002</ele>
        <time>2011-05-23T09:52:25Z</time>
      </trkpt>
      <trkpt lat="48.84166" lon="2.15267">
        <ele>171</ele>
        <time>2011-05-23T09:52:47Z</time>
      </trkpt>
      <trkpt lat="48.8407" lon="2.15273">
        <ele>170.60083</ele>
        <time>2011-05-23T09:53:08Z</time>
      </trkpt>
      <trkpt lat="48.83979" lon="2.15293">
        <ele>163.568802</ele>
        <time>2011-05-23T09:56:25Z</time>
      </trkpt>
      <trkpt lat="48.83961" lon="2.15151">
        <ele>167.748138</ele>
        <time>2011-05-23T09:57:19Z</time>
      </trkpt>
      <trkpt lat="48.83939" lon="2.15012">
        <ele>164.333282</ele>
        <time>2011-05-23T09:57:57Z</time>
      </trkpt>
      <trkpt lat="48.83857" lon="2.14985">
        <ele>151.623947</ele>
        <time>2011-05-23T09:59:32Z</time>
      </trkpt>
      <trkpt lat="48.8384" lon="2.14853">
        <ele>155.068756</ele>
        <time>2011-05-23T10:00:00Z</time>
      </trkpt>
      <trkpt lat="48.83831" lon="2.14691">
        <ele>162.548538</ele>
        <time>2011-05-23T10:00:39Z</time>
      </trkpt>
      <trkpt lat="48.83843" lon="2.14532">
        <ele>160.323334</ele>
        <time>2011-05-23T10:01:23Z</time>
      </trkpt>
      <trkpt lat="48.83942" lon="2.14483">
        <ele>162.480789</ele>
        <time>2011-05-23T10:02:12Z</time>
      </trkpt>
      <trkpt lat="48.83948" lon="2.14478">
        <ele>162.744461</ele>
        <time>2011-05-23T10:04:43Z</time>
      </trkpt>
      <trkpt lat="48.83851" lon="2.14509">
        <ele>159.821564</ele>
        <time>2011-05-23T10:05:00Z</time>
      </trkpt>
      <trkpt lat="48.83821" lon="2.14355">
        <ele>160.146744</ele>
        <time>2011-05-23T10:05:28Z</time>
      </trkpt>
      <trkpt lat="48.83704" lon="2.14309">
        <ele>167.174149</ele>
        <time>2011-05-23T10:05:59Z</time>
      </trkpt>
      <trkpt lat="48.83601" lon="2.143">
        <ele>169.542007</ele>
        <time>2011-05-23T10:06:34Z</time>
      </trkpt>
      <trkpt lat="48.83506" lon="2.14296">
        <ele>171.674347</ele>
        <time>2011-05-23T10:06:56Z</time>
      </trkpt>
      <trkpt lat="48.83393" lon="2.14275">
        <ele>174.175003</ele>
        <time>2011-05-23T10:07:27Z</time>
      </trkpt>
      <trkpt lat="48.83292" lon="2.14277">
        <ele>175.77626</ele>
        <time>2011-05-23T10:07:57Z</time>
      </trkpt>
      <trkpt lat="48.83198" lon="2.14259">
        <ele>175.542252</ele>
        <time>2011-05-23T10:08:15Z</time>
      </trkpt>
      <trkpt lat="48.83107" lon="2.14232">
        <ele>170.866211</ele>
        <time>2011-05-23T10:08:28Z</time>
      </trkpt>
      <trkpt lat="48.83049" lon="2.14234">
        <ele>167.056076</ele>
        <time>2011-05-23T10:08:56Z</time>
      </trkpt>
      <trkpt lat="48.83023" lon="2.14345">
        <ele>171.510269</ele>
        <time>2011-05-23T10:09:31Z</time>
      </trkpt>
      <trkpt lat="48.82948" lon="2.14458">
        <ele>170.663635</ele>
        <time>2011-05-23T10:09:55Z</time>
      </trkpt>
      <trkpt lat="48.82872" lon="2.14566">
        <ele>165.282379</ele>
        <time>2011-05-23T10:10:10Z</time>
      </trkpt>
      <trkpt lat="48.82806" lon="2.14683">
        <ele>164.918869</ele>
        <time>2011-05-23T10:10:31Z</time>
      </trkpt>
      <trkpt lat="48.82733" lon="2.14802">
        <ele>164.789612</ele>
        <time>2011-05-23T10:10:50Z</time>
      </trkpt>
      <trkpt lat="48.82646" lon="2.14872">
        <ele>169.022476</ele>
        <time>2011-05-23T10:11:13Z</time>
      </trkpt>
      <trkpt lat="48.82541" lon="2.14917">
        <ele>175.544159</ele>
        <time>2011-05-23T10:11:38Z</time>
      </trkpt>
      <trkpt lat="48.82431" lon="2.14961">
        <ele>175.646835</ele>
        <time>2011-05-23T10:12:00Z</time>
      </trkpt>
      <trkpt lat="48.8234" lon="2.15007">
        <ele>173.298309</ele>
        <time>2011-05-23T10:12:20Z</time>
      </trkpt>
      <trkpt lat="48.82246" lon="2.15049">
        <ele>164.864578</ele>
        <time>2011-05-23T10:12:36Z</time>
      </trkpt>
      <trkpt lat="48.82153" lon="2.15083">
        <ele>163.147385</ele>
        <time>2011-05-23T10:12:49Z</time>
      </trkpt>
      <trkpt lat="48.82047" lon="2.15077">
        <ele>172.824005</ele>
        <time>2011-05-23T10:13:19Z</time>
      </trkpt>
      <trkpt lat="48.81944" lon="2.14994">
        <ele>172.643829</ele>
        <time>2011-05-23T10:13:51Z</time>
      </trkpt>
      <trkpt lat="48.81887" lon="2.1508">
        <ele>176.466263</ele>
        <time>2011-05-23T10:15:02Z</time>
      </trkpt>
      <trkpt lat="48.81866" lon="2.15267">
        <ele>159.449036</ele>
        <time>2011-05-23T10:25:51Z</time>
      </trkpt>
      <trkpt lat="48.81814" lon="2.15469">
        <ele>146.368958</ele>
        <time>2011-05-23T10:26:13Z</time>
      </trkpt>
      <trkpt lat="48.81795" lon="2.15613">
        <ele>143.810379</ele>
        <time>2011-05-23T10:26:28Z</time>
      </trkpt>
      <trkpt lat="48.81772" lon="2.15758">
        <ele>143.176834</ele>
        <time>2011-05-23T10:26:48Z</time>
      </trkpt>
      <trkpt lat="48.81747" lon="2.15941">
        <ele>140.113998</ele>
        <time>2011-05-23T10:27:20Z</time>
      </trkpt>
      <trkpt lat="48.81717" lon="2.16129">
        <ele>138.020142</ele>
        <time>2011-05-23T10:27:41Z</time>
      </trkpt>
      <trkpt lat="48.81699" lon="2.16312">
        <ele>136.98793</ele>
        <time>2011-05-23T10:29:55Z</time>
      </trkpt>
      <trkpt lat="48.81675" lon="2.16448">
        <ele>136.312943</ele>
        <time>2011-05-23T10:30:09Z</time>
      </trkpt>
      <trkpt lat="48.81646" lon="2.16596">
        <ele>134.131561</ele>
        <time>2011-05-23T10:30:30Z</time>
      </trkpt>
      <trkpt lat="48.81629" lon="2.16782">
        <ele>135.052521</ele>
        <time>2011-05-23T10:30:57Z</time>
      </trkpt>
      <trkpt lat="48.81614" lon="2.16939">
        <ele>134.43338</ele>
        <time>2011-05-23T10:31:25Z</time>
      </trkpt>
      <trkpt lat="48.81711" lon="2.17006">
        <ele>131.386459</ele>
        <time>2011-05-23T10:31:45Z</time>
      </trkpt>
      <trkpt lat="48.81813" lon="2.17072">
        <ele>129.368683</ele>
        <time>2011-05-23T10:32:11Z</time>
      </trkpt>
      <trkpt lat="48.81913" lon="2.17165">
        <ele>127.280281</ele>
        <time>2011-05-23T10:32:30Z</time>
      </trkpt>
      <trkpt lat="48.81986" lon="2.17291">
        <ele>126.037933</ele>
        <time>2011-05-23T10:32:48Z</time>
      </trkpt>
      <trkpt lat="48.82028" lon="2.17448">
        <ele>124.362808</ele>
        <time>2011-05-23T10:33:06Z</time>
      </trkpt>
      <trkpt lat="48.8204" lon="2.17604">
        <ele>121.863342</ele>
        <time>2011-05-23T10:33:24Z</time>
      </trkpt>
      <trkpt lat="48.81997" lon="2.17778">
        <ele>122.301628</ele>
        <time>2011-05-23T10:33:42Z</time>
      </trkpt>
      <trkpt lat="48.81948" lon="2.17923">
        <ele>120.21051</ele>
        <time>2011-05-23T10:34:04Z</time>
      </trkpt>
      <trkpt lat="48.81979" lon="2.1807">
        <ele>119.921257</ele>
        <time>2011-05-23T10:34:31Z</time>
      </trkpt>
      <trkpt lat="48.82035" lon="2.18203">
        <ele>119.052872</ele>
        <time>2011-05-23T10:35:04Z</time>
      </trkpt>
      <trkpt lat="48.82031" lon="2.18347">
        <ele>119.709053</ele>
        <time>2011-05-23T10:35:23Z</time>
      </trkpt>
      <trkpt lat="48.82078" lon="2.18473">
        <ele>116.875465</ele>
        <time>2011-05-23T10:35:44Z</time>
      </trkpt>
      <trkpt lat="48.81988" lon="2.18514">
        <ele>128.736557</ele>
        <time>2011-05-23T10:38:28Z</time>
      </trkpt>
      <trkpt lat="48.81853" lon="2.18563">
        <ele>146.358841</ele>
        <time>2011-05-23T10:40:02Z</time>
      </trkpt>
      <trkpt lat="48.81737" lon="2.18584">
        <ele>151.23259</ele>
        <time>2011-05-23T10:40:50Z</time>
      </trkpt>
      <trkpt lat="48.81606" lon="2.18501">
        <ele>152.989761</ele>
        <time>2011-05-23T10:41:22Z</time>
      </trkpt>
      <trkpt lat="48.8149" lon="2.18457">
        <ele>144.476913</ele>
        <time>2011-05-23T10:41:47Z</time>
      </trkpt>
      <trkpt lat="48.81387" lon="2.18458">
        <ele>130.374527</ele>
        <time>2011-05-23T10:41:58Z</time>
      </trkpt>
      <trkpt lat="48.813" lon="2.18526">
        <ele>123.114021</ele>
        <time>2011-05-23T10:42:20Z</time>
      </trkpt>
      <trkpt lat="48.81263" lon="2.18673">
        <ele>117.308502</ele>
        <time>2011-05-23T10:42:51Z</time>
      </trkpt>
      <trkpt lat="48.81197" lon="2.18774">
        <ele>110.413528</ele>
        <time>2011-05-23T10:43:05Z</time>
      </trkpt>
      <trkpt lat="48.81133" lon="2.18885">
        <ele>101.829018</ele>
        <time>2011-05-23T10:43:23Z</time>
      </trkpt>
      <trkpt lat="48.8104" lon="2.1891">
        <ele>95.587845</ele>
        <time>2011-05-23T10:43:38Z</time>
      </trkpt>
      <trkpt lat="48.80969" lon="2.18963">
        <ele>86.502304</ele>
        <time>2011-05-23T10:44:24Z</time>
      </trkpt>
      <trkpt lat="48.80991" lon="2.18988">
        <ele>87.496681</ele>
        <time>2011-05-23T10:45:55Z</time>
      </trkpt>
      <trkpt lat="48.80967" lon="2.18991">
        <ele>85.103783</ele>
        <time>2011-05-23T11:02:46Z</time>
      </trkpt>
      <trkpt lat="48.80944" lon="2.19093">
        <ele>81.017868</ele>
        <time>2011-05-23T11:05:06Z</time>
      </trkpt>
      <trkpt lat="48.8099" lon="2.19218">
        <ele>78.877487</ele>
        <time>2011-05-23T11:05:34Z</time>
      </trkpt>
      <trkpt lat="48.81013" lon="2.19319">
        <ele>80.726761</ele>
        <time>2011-05-23T11:05:57Z</time>
      </trkpt>
      <trkpt lat="48.80967" lon="2.19464">
        <ele>91.421158</ele>
        <time>2011-05-23T11:06:44Z</time>
      </trkpt>
      <trkpt lat="48.80907" lon="2.19564">
        <ele>100.925644</ele>
        <time>2011-05-23T11:07:34Z</time>
      </trkpt>
      <trkpt lat="48.80885" lon="2.19665">
        <ele>108.666252</ele>
        <time>2011-05-23T11:08:27Z</time>
      </trkpt>
      <trkpt lat="48.80947" lon="2.19832">
        <ele>127.864708</ele>
        <time>2011-05-23T11:10:25Z</time>
      </trkpt>
      <trkpt lat="48.80935" lon="2.19986">
        <ele>149.803024</ele>
        <time>2011-05-23T11:12:03Z</time>
      </trkpt>
      <trkpt lat="48.81029" lon="2.20038">
        <ele>165.82724</ele>
        <time>2011-05-23T11:14:50Z</time>
      </trkpt>
      <trkpt lat="48.81138" lon="2.20078">
        <ele>162.069824</ele>
        <time>2011-05-23T11:15:18Z</time>
      </trkpt>
      <trkpt lat="48.81235" lon="2.20153">
        <ele>155.941071</ele>
        <time>2011-05-23T11:15:37Z</time>
      </trkpt>
      <trkpt lat="48.8128" lon="2.20298">
        <ele>158.44635</ele>
        <time>2011-05-23T11:15:58Z</time>
      </trkpt>
      <trkpt lat="48.81327" lon="2.20447">
        <ele>158.612289</ele>
        <time>2011-05-23T11:16:20Z</time>
      </trkpt>
      <trkpt lat="48.81372" lon="2.20595">
        <ele>160.124374</ele>
        <time>2011-05-23T11:16:41Z</time>
      </trkpt>
      <trkpt lat="48.81459" lon="2.20662">
        <ele>156.693207</ele>
        <time>2011-05-23T11:17:59Z</time>
      </trkpt>
      <trkpt lat="48.81568" lon="2.20678">
        <ele>138.477951</ele>
        <time>2011-05-23T11:18:27Z</time>
      </trkpt>
      <trkpt lat="48.81673" lon="2.20706">
        <ele>124.120636</ele>
        <time>2011-05-23T11:18:49Z</time>
      </trkpt>
      <trkpt lat="48.81741" lon="2.20809">
        <ele>117.652641</ele>
        <time>2011-05-23T11:19:12Z</time>
      </trkpt>
      <trkpt lat="48.81746" lon="2.20904">
        <ele>125.821335</ele>
        <time>2011-05-23T11:20:45Z</time>
      </trkpt>
      <trkpt lat="48.81662" lon="2.20992">
        <ele>141.308441</ele>
        <time>2011-05-23T11:21:52Z</time>
      </trkpt>
      <trkpt lat="48.81664" lon="2.21168">
        <ele>137.265045</ele>
        <time>2011-05-23T11:22:34Z</time>
      </trkpt>
      <trkpt lat="48.8166" lon="2.21353">
        <ele>128.184738</ele>
        <time>2011-05-23T11:22:59Z</time>
      </trkpt>
      <trkpt lat="48.81688" lon="2.2153">
        <ele>138.154388</ele>
        <time>2011-05-23T11:24:40Z</time>
      </trkpt>
      <trkpt lat="48.81662" lon="2.21658">
        <ele>144.025162</ele>
        <time>2011-05-23T11:27:47Z</time>
      </trkpt>
      <trkpt lat="48.81619" lon="2.21758">
        <ele>142.641663</ele>
        <time>2011-05-23T11:28:22Z</time>
      </trkpt>
      <trkpt lat="48.81524" lon="2.21829">
        <ele>143.535202</ele>
        <time>2011-05-23T11:29:08Z</time>
      </trkpt>
      <trkpt lat="48.815" lon="2.2193">
        <ele>133.670929</ele>
        <time>2011-05-23T11:29:37Z</time>
      </trkpt>
      <trkpt lat="48.81559" lon="2.22032">
        <ele>124.397125</ele>
        <time>2011-05-23T11:30:00Z</time>
      </trkpt>
      <trkpt lat="48.81532" lon="2.22141">
        <ele>118.951591</ele>
        <time>2011-05-23T11:30:33Z</time>
      </trkpt>
      <trkpt lat="48.81455" lon="2.2216">
        <ele>124.289284</ele>
        <time>2011-05-23T11:31:18Z</time>
      </trkpt>
      <trkpt lat="48.81345" lon="2.22147">
        <ele>132.68927</ele>
        <time>2011-05-23T11:32:08Z</time>
      </trkpt>
      <trkpt lat="48.81191" lon="2.22203">
        <ele>156.967789</ele>
        <time>2011-05-23T11:34:12Z</time>
      </trkpt>
      <trkpt lat="48.81108" lon="2.2234">
        <ele>161.829147</ele>
        <time>2011-05-23T11:34:57Z</time>
      </trkpt>
      <trkpt lat="48.8103" lon="2.22467">
        <ele>163</ele>
        <time>2011-05-23T11:35:26Z</time>
      </trkpt>
      <trkpt lat="48.80998" lon="2.22617">
        <ele>163.119873</ele>
        <time>2011-05-23T11:36:02Z</time>
      </trkpt>
      <trkpt lat="48.81011" lon="2.22755">
        <ele>162.058167</ele>
        <time>2011-05-23T11:36:25Z</time>
      </trkpt>
      <trkpt lat="48.81023" lon="2.22894">
        <ele>159.487274</ele>
        <time>2011-05-23T11:36:46Z</time>
      </trkpt>
      <trkpt lat="48.81034" lon="2.22995">
        <ele>155.488708</ele>
        <time>2011-05-23T11:39:10Z</time>
      </trkpt>
      <trkpt lat="48.81039" lon="2.23029">
        <ele>153.366318</ele>
        <time>2011-05-23T11:41:35Z</time>
      </trkpt>
      <trkpt lat="48.81135" lon="2.23021">
        <ele>144.032532</ele>
        <time>2011-05-23T11:41:49Z</time>
      </trkpt>
      <trkpt lat="48.81155" lon="2.23034">
        <ele>140.360519</ele>
        <time>2011-05-23T11:42:15Z</time>
      </trkpt>
      <trkpt lat="48.81068" lon="2.23086">
        <ele>145.262207</ele>
        <time>2011-05-23T11:42:38Z</time>
      </trkpt>
      <trkpt lat="48.8098" lon="2.23147">
        <ele>147.604996</ele>
        <time>2011-05-23T11:43:02Z</time>
      </trkpt>
      <trkpt lat="48.80924" lon="2.23237">
        <ele>144.303497</ele>
        <time>2011-05-23T11:43:42Z</time>
      </trkpt>
      <trkpt lat="48.80842" lon="2.23276">
        <ele>140.928024</ele>
        <time>2011-05-23T11:45:06Z</time>
      </trkpt>
      <trkpt lat="48.80796" lon="2.23367">
        <ele>124.858345</ele>
        <time>2011-05-23T12:15:53Z</time>
      </trkpt>
      <trkpt lat="48.80924" lon="2.23211">
        <ele>145.530029</ele>
        <time>2011-05-23T12:19:00Z</time>
      </trkpt>
      <trkpt lat="48.81007" lon="2.23131">
        <ele>146.403229</ele>
        <time>2011-05-23T12:19:40Z</time>
      </trkpt>
      <trkpt lat="48.81094" lon="2.23077">
        <ele>143.568466</ele>
        <time>2011-05-23T12:19:59Z</time>
      </trkpt>
      <trkpt lat="48.81163" lon="2.23093">
        <ele>135.054337</ele>
        <time>2011-05-23T12:20:27Z</time>
      </trkpt>
      <trkpt lat="48.81257" lon="2.23085">
        <ele>130.693314</ele>
        <time>2011-05-23T12:20:53Z</time>
      </trkpt>
      <trkpt lat="48.8133" lon="2.23108">
        <ele>125.571877</ele>
        <time>2011-05-23T12:22:23Z</time>
      </trkpt>
      <trkpt lat="48.81417" lon="2.23087">
        <ele>120.562492</ele>
        <time>2011-05-23T12:22:37Z</time>
      </trkpt>
      <trkpt lat="48.81519" lon="2.23063">
        <ele>114.650063</ele>
        <time>2011-05-23T12:22:50Z</time>
      </trkpt>
      <trkpt lat="48.81616" lon="2.23039">
        <ele>106.798607</ele>
        <time>2011-05-23T12:23:03Z</time>
      </trkpt>
      <trkpt lat="48.81712" lon="2.23015">
        <ele>104.673203</ele>
        <time>2011-05-23T12:23:15Z</time>
      </trkpt>
      <trkpt lat="48.81796" lon="2.23004">
        <ele>98.826782</ele>
        <time>2011-05-23T12:23:55Z</time>
      </trkpt>
      <trkpt lat="48.81882" lon="2.22953">
        <ele>97.056198</ele>
        <time>2011-05-23T12:24:13Z</time>
      </trkpt>
      <trkpt lat="48.81925" lon="2.22933">
        <ele>96.544075</ele>
        <time>2011-05-23T12:32:50Z</time>
      </trkpt>
      <trkpt lat="48.81928" lon="2.23056">
        <ele>94.72892</ele>
        <time>2011-05-23T12:33:31Z</time>
      </trkpt>
      <trkpt lat="48.81941" lon="2.23177">
        <ele>92.14521</ele>
        <time>2011-05-23T12:33:58Z</time>
      </trkpt>
      <trkpt lat="48.81905" lon="2.23272">
        <ele>87.048828</ele>
        <time>2011-05-23T12:35:09Z</time>
      </trkpt>
      <trkpt lat="48.81972" lon="2.23302">
        <ele>79.803566</ele>
        <time>2011-05-23T12:35:45Z</time>
      </trkpt>
      <trkpt lat="48.82006" lon="2.2329">
        <ele>71.534302</ele>
        <time>2011-05-23T12:36:14Z</time>
      </trkpt>
      <trkpt lat="48.81985" lon="2.23384">
        <ele>56.904976</ele>
        <time>2011-05-23T12:36:43Z</time>
      </trkpt>
      <trkpt lat="48.82072" lon="2.23308">
        <ele>42.672642</ele>
        <time>2011-05-23T12:36:57Z</time>
      </trkpt>
      <trkpt lat="48.82151" lon="2.23257">
        <ele>35.508522</ele>
        <time>2011-05-23T12:37:10Z</time>
      </trkpt>
      <trkpt lat="48.82194" lon="2.23261">
        <ele>31.169641</ele>
        <time>2011-05-23T12:37:37Z</time>
      </trkpt>
      <trkpt lat="48.82147" lon="2.23364">
        <ele>31.098587</ele>
        <time>2011-05-23T12:38:04Z</time>
      </trkpt>
      <trkpt lat="48.82106" lon="2.23489">
        <ele>30.860888</ele>
        <time>2011-05-23T12:38:24Z</time>
      </trkpt>
      <trkpt lat="48.8207" lon="2.23619">
        <ele>30.722509</ele>
        <time>2011-05-23T12:38:46Z</time>
      </trkpt>
      <trkpt lat="48.82042" lon="2.23757">
        <ele>30.384033</ele>
        <time>2011-05-23T12:39:13Z</time>
      </trkpt>
      <trkpt lat="48.8202" lon="2.23892">
        <ele>29.989895</ele>
        <time>2011-05-23T12:39:33Z</time>
      </trkpt>
      <trkpt lat="48.82011" lon="2.24024">
        <ele>30.190639</ele>
        <time>2011-05-23T12:39:57Z</time>
      </trkpt>
      <trkpt lat="48.82027" lon="2.24166">
        <ele>29.937593</ele>
        <time>2011-05-23T12:40:33Z</time>
      </trkpt>
      <trkpt lat="48.82028" lon="2.2431">
        <ele>30</ele>
        <time>2011-05-23T12:41:06Z</time>
      </trkpt>
      <trkpt lat="48.82042" lon="2.24456">
        <ele>30</ele>
        <time>2011-05-23T12:41:33Z</time>
      </trkpt>
      <trkpt lat="48.82071" lon="2.2461">
        <ele>30</ele>
        <time>2011-05-23T12:42:00Z</time>
      </trkpt>
      <trkpt lat="48.82119" lon="2.24762">
        <ele>30</ele>
        <time>2011-05-23T12:42:24Z</time>
      </trkpt>
      <trkpt lat="48.82155" lon="2.24886">
        <ele>30.000769</ele>
        <time>2011-05-23T12:42:44Z</time>
      </trkpt>
      <trkpt lat="48.82196" lon="2.2499">
        <ele>30</ele>
        <time>2011-05-23T12:43:10Z</time>
      </trkpt>
      <trkpt lat="48.82283" lon="2.24948">
        <ele>31.107361</ele>
        <time>2011-05-23T12:43:38Z</time>
      </trkpt>
      <trkpt lat="48.82337" lon="2.25042">
        <ele>33.008659</ele>
        <time>2011-05-23T12:44:07Z</time>
      </trkpt>
      <trkpt lat="48.82393" lon="2.25121">
        <ele>33.989277</ele>
        <time>2011-05-23T12:46:22Z</time>
      </trkpt>
      <trkpt lat="48.82448" lon="2.25244">
        <ele>33.708057</ele>
        <time>2011-05-23T12:46:44Z</time>
      </trkpt>
      <trkpt lat="48.8248" lon="2.25374">
        <ele>32.478569</ele>
        <time>2011-05-23T12:47:06Z</time>
      </trkpt>
      <trkpt lat="48.82498" lon="2.25488">
        <ele>31.550695</ele>
        <time>2011-05-23T12:47:29Z</time>
      </trkpt>
      <trkpt lat="48.82568" lon="2.25585">
        <ele>31.596386</ele>
        <time>2011-05-23T12:47:52Z</time>
      </trkpt>
      <trkpt lat="48.82641" lon="2.25679">
        <ele>31.808403</ele>
        <time>2011-05-23T12:48:18Z</time>
      </trkpt>
      <trkpt lat="48.82673" lon="2.25789">
        <ele>31.017519</ele>
        <time>2011-05-23T12:48:49Z</time>
      </trkpt>
      <trkpt lat="48.82733" lon="2.2589">
        <ele>31.711979</ele>
        <time>2011-05-23T12:49:19Z</time>
      </trkpt>
      <trkpt lat="48.82814" lon="2.25888">
        <ele>35.582855</ele>
        <time>2011-05-23T12:49:49Z</time>
      </trkpt>
      <trkpt lat="48.82901" lon="2.25933">
        <ele>34.089569</ele>
        <time>2011-05-23T12:50:20Z</time>
      </trkpt>
      <trkpt lat="48.83" lon="2.25964">
        <ele>33.203754</ele>
        <time>2011-05-23T12:50:49Z</time>
      </trkpt>
      <trkpt lat="48.82965" lon="2.26078">
        <ele>30.743595</ele>
        <time>2011-05-23T12:51:46Z</time>
      </trkpt>
      <trkpt lat="48.82963" lon="2.2621">
        <ele>31.682394</ele>
        <time>2011-05-23T12:52:30Z</time>
      </trkpt>
      <trkpt lat="48.82931" lon="2.26349">
        <ele>31.445518</ele>
        <time>2011-05-23T12:53:04Z</time>
      </trkpt>
      <trkpt lat="48.82895" lon="2.26486">
        <ele>30.149353</ele>
        <time>2011-05-23T12:53:38Z</time>
      </trkpt>
      <trkpt lat="48.8286" lon="2.26616">
        <ele>29.121632</ele>
        <time>2011-05-23T12:54:14Z</time>
      </trkpt>
      <trkpt lat="48.82881" lon="2.26736">
        <ele>28.946344</ele>
        <time>2011-05-23T12:54:51Z</time>
      </trkpt>
      <trkpt lat="48.82806" lon="2.26842">
        <ele>29.527964</ele>
        <time>2011-05-23T12:55:50Z</time>
      </trkpt>
      <trkpt lat="48.8288" lon="2.26949">
        <ele>30.211914</ele>
        <time>2011-05-23T12:56:20Z</time>
      </trkpt>
      <trkpt lat="48.82939" lon="2.26907">
        <ele>32.70575</ele>
        <time>2011-05-23T12:57:17Z</time>
      </trkpt>
      <trkpt lat="48.82993" lon="2.26998">
        <ele>29.546274</ele>
        <time>2011-05-23T12:58:13Z</time>
      </trkpt>
      <trkpt lat="48.82964" lon="2.27142">
        <ele>30</ele>
        <time>2011-05-23T12:58:45Z</time>
      </trkpt>
      <trkpt lat="48.82993" lon="2.27287">
        <ele>30</ele>
        <time>2011-05-23T12:59:08Z</time>
      </trkpt>
      <trkpt lat="48.83064" lon="2.27353">
        <ele>30.991776</ele>
        <time>2011-05-23T12:59:42Z</time>
      </trkpt>
      <trkpt lat="48.83138" lon="2.27342">
        <ele>30.917212</ele>
        <time>2011-05-23T13:00:11Z</time>
      </trkpt>
      <trkpt lat="48.8321" lon="2.27422">
        <ele>34.495331</ele>
        <time>2011-05-23T13:00:46Z</time>
      </trkpt>
      <trkpt lat="48.83256" lon="2.27553">
        <ele>33.312763</ele>
        <time>2011-05-23T13:01:14Z</time>
      </trkpt>
      <trkpt lat="48.83321" lon="2.27646">
        <ele>33</ele>
        <time>2011-05-23T13:03:50Z</time>
      </trkpt>
      <trkpt lat="48.83373" lon="2.27713">
        <ele>33</ele>
        <time>2011-05-23T13:04:50Z</time>
      </trkpt>
      <trkpt lat="48.83473" lon="2.27769">
        <ele>33</ele>
        <time>2011-05-23T13:05:09Z</time>
      </trkpt>
      <trkpt lat="48.83561" lon="2.27814">
        <ele>33</ele>
        <time>2011-05-23T13:05:27Z</time>
      </trkpt>
      <trkpt lat="48.83672" lon="2.27866">
        <ele>32.32148</ele>
        <time>2011-05-23T13:06:13Z</time>
      </trkpt>
      <trkpt lat="48.83711" lon="2.27754">
        <ele>32</ele>
        <time>2011-05-23T13:06:36Z</time>
      </trkpt>
      <trkpt lat="48.83749" lon="2.27622">
        <ele>32.560368</ele>
        <time>2011-05-23T13:06:51Z</time>
      </trkpt>
      <trkpt lat="48.83806" lon="2.27548">
        <ele>32.756001</ele>
        <time>2011-05-23T13:07:18Z</time>
      </trkpt>
      <trkpt lat="48.83878" lon="2.27629">
        <ele>32</ele>
        <time>2011-05-23T13:07:39Z</time>
      </trkpt>
      <trkpt lat="48.83964" lon="2.27618">
        <ele>32</ele>
        <time>2011-05-23T13:08:24Z</time>
      </trkpt>
      <trkpt lat="48.84051" lon="2.27591">
        <ele>32</ele>
        <time>2011-05-23T13:09:03Z</time>
      </trkpt>
      <trkpt lat="48.84045" lon="2.27657">
        <ele>32</ele>
        <time>2011-05-23T13:09:47Z</time>
      </trkpt>
      <trkpt lat="48.84112" lon="2.27642">
        <ele>32</ele>
        <time>2011-05-23T13:10:20Z</time>
      </trkpt>
      <trkpt lat="48.84213" lon="2.27724">
        <ele>31</ele>
        <time>2011-05-23T13:10:48Z</time>
      </trkpt>
      <trkpt lat="48.84316" lon="2.27742">
        <ele>31</ele>
        <time>2011-05-23T13:11:17Z</time>
      </trkpt>
      <trkpt lat="48.84448" lon="2.27724">
        <ele>31</ele>
        <time>2011-05-23T13:11:39Z</time>
      </trkpt>
      <trkpt lat="48.84573" lon="2.27712">
        <ele>30.183577</ele>
        <time>2011-05-23T13:12:25Z</time>
      </trkpt>
      <trkpt lat="48.84659" lon="2.27784">
        <ele>30</ele>
        <time>2011-05-23T13:12:44Z</time>
      </trkpt>
      <trkpt lat="48.84725" lon="2.27877">
        <ele>30</ele>
        <time>2011-05-23T13:13:00Z</time>
      </trkpt>
      <trkpt lat="48.84778" lon="2.27982">
        <ele>30.515684</ele>
        <time>2011-05-23T13:13:46Z</time>
      </trkpt>
      <trkpt lat="48.84842" lon="2.28099">
        <ele>30.608471</ele>
        <time>2011-05-23T13:14:16Z</time>
      </trkpt>
      <trkpt lat="48.84774" lon="2.28229">
        <ele>31</ele>
        <time>2011-05-23T13:14:43Z</time>
      </trkpt>
      <trkpt lat="48.84729" lon="2.28347">
        <ele>31.108191</ele>
        <time>2011-05-23T13:15:11Z</time>
      </trkpt>
      <trkpt lat="48.84814" lon="2.28463">
        <ele>32</ele>
        <time>2011-05-23T13:16:32Z</time>
      </trkpt>
      <trkpt lat="48.84898" lon="2.28549">
        <ele>32</ele>
        <time>2011-05-23T13:16:51Z</time>
      </trkpt>
      <trkpt lat="48.84971" lon="2.28623">
        <ele>32</ele>
        <time>2011-05-23T13:17:11Z</time>
      </trkpt>
      <trkpt lat="48.85079" lon="2.2874">
        <ele>31.992065</ele>
        <time>2011-05-23T13:17:35Z</time>
      </trkpt>
      <trkpt lat="48.8519" lon="2.28851">
        <ele>31</ele>
        <time>2011-05-23T13:17:55Z</time>
      </trkpt>
      <trkpt lat="48.85253" lon="2.28802">
        <ele>31</ele>
        <time>2011-05-23T13:18:15Z</time>
      </trkpt>
      <trkpt lat="48.85294" lon="2.28677">
        <ele>30.207077</ele>
        <time>2011-05-23T13:18:40Z</time>
      </trkpt>
      <trkpt lat="48.85364" lon="2.28753">
        <ele>30.047657</ele>
        <time>2011-05-23T13:18:59Z</time>
      </trkpt>
      <trkpt lat="48.85429" lon="2.28851">
        <ele>30.106855</ele>
        <time>2011-05-23T13:19:47Z</time>
      </trkpt>
      <trkpt lat="48.85512" lon="2.28949">
        <ele>30.33415</ele>
        <time>2011-05-23T13:20:16Z</time>
      </trkpt>
      <trkpt lat="48.85595" lon="2.28999">
        <ele>30.689987</ele>
        <time>2011-05-23T13:20:36Z</time>
      </trkpt>
      <trkpt lat="48.85685" lon="2.29044">
        <ele>30.690216</ele>
        <time>2011-05-23T13:20:56Z</time>
      </trkpt>
      <trkpt lat="48.85753" lon="2.29139">
        <ele>30.99749</ele>
        <time>2011-05-23T13:21:17Z</time>
      </trkpt>
      <trkpt lat="48.8575" lon="2.29256">
        <ele>31</ele>
        <time>2011-05-23T13:21:46Z</time>
      </trkpt>
      <trkpt lat="48.85723" lon="2.29408">
        <ele>31.696428</ele>
        <time>2011-05-23T13:22:15Z</time>
      </trkpt>
      <trkpt lat="48.85792" lon="2.29482">
        <ele>31.822901</ele>
        <time>2011-05-23T13:22:55Z</time>
      </trkpt>
      <trkpt lat="48.85865" lon="2.29389">
        <ele>31</ele>
        <time>2011-05-23T13:25:33Z</time>
      </trkpt>
      <trkpt lat="48.8594" lon="2.29294">
        <ele>30.029512</ele>
        <time>2011-05-23T13:28:47Z</time>
      </trkpt>
      <trkpt lat="48.86001" lon="2.29199">
        <ele>29.196547</ele>
        <time>2011-05-23T13:29:10Z</time>
      </trkpt>
      <trkpt lat="48.86078" lon="2.29143">
        <ele>31.873468</ele>
        <time>2011-05-23T13:29:54Z</time>
      </trkpt>
      <trkpt lat="48.86168" lon="2.29168">
        <ele>40.157505</ele>
        <time>2011-05-23T13:30:14Z</time>
      </trkpt>
      <trkpt lat="48.8626" lon="2.29202">
        <ele>48.298038</ele>
        <time>2011-05-23T13:30:39Z</time>
      </trkpt>
      <trkpt lat="48.86343" lon="2.29277">
        <ele>48.947109</ele>
        <time>2011-05-23T13:31:02Z</time>
      </trkpt>
      <trkpt lat="48.86422" lon="2.29366">
        <ele>45.778038</ele>
        <time>2011-05-23T13:31:43Z</time>
      </trkpt>
      <trkpt lat="48.86518" lon="2.29442">
        <ele>47.627842</ele>
        <time>2011-05-23T13:32:36Z</time>
      </trkpt>
      <trkpt lat="48.86652" lon="2.29493">
        <ele>52.076981</ele>
        <time>2011-05-23T13:33:14Z</time>
      </trkpt>
      <trkpt lat="48.86766" lon="2.29566">
        <ele>55.485844</ele>
        <time>2011-05-23T13:33:39Z</time>
      </trkpt>
      <trkpt lat="48.86865" lon="2.29579">
        <ele>57.513252</ele>
        <time>2011-05-23T13:34:11Z</time>
      </trkpt>
      <trkpt lat="48.87004" lon="2.29573">
        <ele>57.853752</ele>
        <time>2011-05-23T13:34:52Z</time>
      </trkpt>
      <trkpt lat="48.87115" lon="2.29563">
        <ele>57.005661</ele>
        <time>2011-05-23T13:35:16Z</time>
      </trkpt>
      <trkpt lat="48.87255" lon="2.29547">
        <ele>58.099659</ele>
        <time>2011-05-23T13:36:06Z</time>
      </trkpt>
      <trkpt lat="48.87334" lon="2.29614">
        <ele>58</ele>
        <time>2011-05-23T13:37:56Z</time>
      </trkpt>
      <trkpt lat="48.87289" lon="2.29741">
        <ele>55.896336</ele>
        <time>2011-05-23T13:38:16Z</time>
      </trkpt>
      <trkpt lat="48.8725" lon="2.29865">
        <ele>51.758041</ele>
        <time>2011-05-23T13:38:34Z</time>
      </trkpt>
      <trkpt lat="48.87208" lon="2.30009">
        <ele>47.661957</ele>
        <time>2011-05-23T13:39:30Z</time>
      </trkpt>
      <trkpt lat="48.8717" lon="2.30143">
        <ele>45.515434</ele>
        <time>2011-05-23T13:41:42Z</time>
      </trkpt>
      <trkpt lat="48.87126" lon="2.30289">
        <ele>41.902302</ele>
        <time>2011-05-23T13:42:09Z</time>
      </trkpt>
      <trkpt lat="48.87078" lon="2.30419">
        <ele>38.917603</ele>
        <time>2011-05-23T13:42:40Z</time>
      </trkpt>
      <trkpt lat="48.87027" lon="2.30564">
        <ele>37.102604</ele>
        <time>2011-05-23T13:43:16Z</time>
      </trkpt>
      <trkpt lat="48.86972" lon="2.30705">
        <ele>36</ele>
        <time>2011-05-23T13:44:06Z</time>
      </trkpt>
      <trkpt lat="48.86926" lon="2.30856">
        <ele>35</ele>
        <time>2011-05-23T13:44:50Z</time>
      </trkpt>
      <trkpt lat="48.8685" lon="2.30944">
        <ele>34</ele>
        <time>2011-05-23T13:45:34Z</time>
      </trkpt>
      <trkpt lat="48.86769" lon="2.30997">
        <ele>33</ele>
        <time>2011-05-23T13:46:07Z</time>
      </trkpt>
      <trkpt lat="48.86664" lon="2.31006">
        <ele>32.252922</ele>
        <time>2011-05-23T13:46:36Z</time>
      </trkpt>
      <trkpt lat="48.86553" lon="2.31015">
        <ele>31.796537</ele>
        <time>2011-05-23T13:47:11Z</time>
      </trkpt>
      <trkpt lat="48.86455" lon="2.31051">
        <ele>30.605949</ele>
        <time>2011-05-23T13:48:03Z</time>
      </trkpt>
      <trkpt lat="48.86438" lon="2.31049">
        <ele>30.227871</ele>
        <time>2011-05-23T13:51:39Z</time>
      </trkpt>
      <trkpt lat="48.86429" lon="2.31189">
        <ele>30.035145</ele>
        <time>2011-05-23T13:52:04Z</time>
      </trkpt>
      <trkpt lat="48.86424" lon="2.31328">
        <ele>30</ele>
        <time>2011-05-23T13:52:22Z</time>
      </trkpt>
      <trkpt lat="48.86429" lon="2.3149">
        <ele>30</ele>
        <time>2011-05-23T13:52:45Z</time>
      </trkpt>
      <trkpt lat="48.86439" lon="2.31629">
        <ele>30</ele>
        <time>2011-05-23T13:53:07Z</time>
      </trkpt>
      <trkpt lat="48.86445" lon="2.31769">
        <ele>30</ele>
        <time>2011-05-23T13:53:31Z</time>
      </trkpt>
      <trkpt lat="48.86431" lon="2.31908">
        <ele>30.083626</ele>
        <time>2011-05-23T13:54:00Z</time>
      </trkpt>
      <trkpt lat="48.86393" lon="2.32043">
        <ele>30.090847</ele>
        <time>2011-05-23T13:54:21Z</time>
      </trkpt>
      <trkpt lat="48.86352" lon="2.32172">
        <ele>30.09412</ele>
        <time>2011-05-23T13:54:45Z</time>
      </trkpt>
      <trkpt lat="48.86298" lon="2.3233">
        <ele>30.063848</ele>
        <time>2011-05-23T13:55:10Z</time>
      </trkpt>
      <trkpt lat="48.86255" lon="2.32456">
        <ele>30.149645</ele>
        <time>2011-05-23T13:55:32Z</time>
      </trkpt>
      <trkpt lat="48.86208" lon="2.32591">
        <ele>30.051634</ele>
        <time>2011-05-23T13:56:19Z</time>
      </trkpt>
      <trkpt lat="48.86166" lon="2.32723">
        <ele>30.068457</ele>
        <time>2011-05-23T13:56:43Z</time>
      </trkpt>
      <trkpt lat="48.86124" lon="2.32851">
        <ele>30.063158</ele>
        <time>2011-05-23T13:57:05Z</time>
      </trkpt>
      <trkpt lat="48.8608" lon="2.3298">
        <ele>30.040895</ele>
        <time>2011-05-23T13:57:32Z</time>
      </trkpt>
      <trkpt lat="48.86041" lon="2.33109">
        <ele>30.019156</ele>
        <time>2011-05-23T13:57:56Z</time>
      </trkpt>
      <trkpt lat="48.86009" lon="2.33251">
        <ele>30</ele>
        <time>2011-05-23T13:58:23Z</time>
      </trkpt>
      <trkpt lat="48.85979" lon="2.33399">
        <ele>30.007864</ele>
        <time>2011-05-23T13:58:49Z</time>
      </trkpt>
      <trkpt lat="48.85945" lon="2.33531">
        <ele>30.25942</ele>
        <time>2011-05-23T13:59:11Z</time>
      </trkpt>
      <trkpt lat="48.85949" lon="2.33562">
        <ele>30.352652</ele>
        <time>2011-05-23T13:59:46Z</time>
      </trkpt>
      <trkpt lat="48.85921" lon="2.33704">
        <ele>30</ele>
        <time>2011-05-23T14:00:11Z</time>
      </trkpt>
      <trkpt lat="48.85957" lon="2.33813">
        <ele>31</ele>
        <time>2011-05-23T14:01:36Z</time>
      </trkpt>
      <trkpt lat="48.86053" lon="2.33815">
        <ele>32</ele>
        <time>2011-05-23T14:02:08Z</time>
      </trkpt>
      <trkpt lat="48.86102" lon="2.33704">
        <ele>32</ele>
        <time>2011-05-23T14:03:00Z</time>
      </trkpt>
      <trkpt lat="48.86151" lon="2.33603">
        <ele>32.259632</ele>
        <time>2011-05-23T14:03:39Z</time>
      </trkpt>
      <trkpt lat="48.86175" lon="2.33466">
        <ele>32.106815</ele>
        <time>2011-05-23T14:05:25Z</time>
      </trkpt>
      <trkpt lat="48.86182" lon="2.33335">
        <ele>32</ele>
        <time>2011-05-23T14:06:17Z</time>
      </trkpt>
      <trkpt lat="48.86206" lon="2.33206">
        <ele>32</ele>
        <time>2011-05-23T14:06:55Z</time>
      </trkpt>
      <trkpt lat="48.86246" lon="2.33077">
        <ele>31.985012</ele>
        <time>2011-05-23T14:07:43Z</time>
      </trkpt>
      <trkpt lat="48.86271" lon="2.32946">
        <ele>31</ele>
        <time>2011-05-23T14:08:16Z</time>
      </trkpt>
      <trkpt lat="48.86318" lon="2.32839">
        <ele>31.04619</ele>
        <time>2011-05-23T14:08:41Z</time>
      </trkpt>
      <trkpt lat="48.86365" lon="2.32846">
        <ele>31.681849</ele>
        <time>2011-05-23T14:09:50Z</time>
      </trkpt>
      <trkpt lat="48.86311" lon="2.32847">
        <ele>31.078627</ele>
        <time>2011-05-23T14:42:09Z</time>
      </trkpt>
      <trkpt lat="48.86397" lon="2.32946">
        <ele>32</ele>
        <time>2011-05-23T14:44:01Z</time>
      </trkpt>
      <trkpt lat="48.86436" lon="2.33008">
        <ele>32</ele>
        <time>2011-05-23T14:46:20Z</time>
      </trkpt>
      <trkpt lat="48.86479" lon="2.32886">
        <ele>32</ele>
        <time>2011-05-23T14:46:50Z</time>
      </trkpt>
      <trkpt lat="48.86524" lon="2.32764">
        <ele>32.149418</ele>
        <time>2011-05-23T14:47:19Z</time>
      </trkpt>
      <trkpt lat="48.86602" lon="2.32801">
        <ele>33</ele>
        <time>2011-05-23T14:47:52Z</time>
      </trkpt>
      <trkpt lat="48.86706" lon="2.32918">
        <ele>34</ele>
        <time>2011-05-23T14:48:50Z</time>
      </trkpt>
      <trkpt lat="48.86765" lon="2.33008">
        <ele>34</ele>
        <time>2011-05-23T14:49:34Z</time>
      </trkpt>
      <trkpt lat="48.86847" lon="2.33039">
        <ele>34.321289</ele>
        <time>2011-05-23T14:50:16Z</time>
      </trkpt>
      <trkpt lat="48.86928" lon="2.33118">
        <ele>35</ele>
        <time>2011-05-23T14:50:36Z</time>
      </trkpt>
      <trkpt lat="48.87008" lon="2.33237">
        <ele>35</ele>
        <time>2011-05-23T14:51:31Z</time>
      </trkpt>
      <trkpt lat="48.87101" lon="2.33235">
        <ele>36</ele>
        <time>2011-05-23T14:52:08Z</time>
      </trkpt>
      <trkpt lat="48.87193" lon="2.33266">
        <ele>35</ele>
        <time>2011-05-23T14:52:28Z</time>
      </trkpt>
      <trkpt lat="48.87289" lon="2.33279">
        <ele>34.449665</ele>
        <time>2011-05-23T14:53:21Z</time>
      </trkpt>
      <trkpt lat="48.87316" lon="2.3315">
        <ele>34</ele>
        <time>2011-05-23T14:53:52Z</time>
      </trkpt>
      <trkpt lat="48.87337" lon="2.33006">
        <ele>34</ele>
        <time>2011-05-23T14:54:14Z</time>
      </trkpt>
      <trkpt lat="48.87356" lon="2.32861">
        <ele>34</ele>
        <time>2011-05-23T14:54:34Z</time>
      </trkpt>
      <trkpt lat="48.87375" lon="2.3272">
        <ele>34</ele>
        <time>2011-05-23T14:54:55Z</time>
      </trkpt>
      <trkpt lat="48.87471" lon="2.32665">
        <ele>34</ele>
        <time>2011-05-23T14:56:05Z</time>
      </trkpt>
      <trkpt lat="48.87572" lon="2.32651">
        <ele>34.830299</ele>
        <time>2011-05-23T14:57:53Z</time>
      </trkpt>
    </trkseg>
  </trk>
</gpx>